sensor_id;sensor_type;location;lat;lon;timestamp;temperature;humidity
3308;DHT22;1666;48.898;9.182;2024-03-23T00:53:44;10.50;1.00
3308;DHT22;1666;48.898;9.182;2024-03-23T00:56:11;10.50;1.00
3308;DHT22;1666;48.898;9.182;2024-03-23T00:58:37;10.50;1.00
3308;DHT22;1666;48.898;9.182;2024-03-23T01:01:04;10.50;1.00
3308;DHT22;1666;48.898;9.182;2024-03-23T01:03:30;10.60;1.00
3308;DHT22;1666;48.898;9.182;2024-03-23T01:05:59;10.60;1.00
3308;DHT22;1666;48.898;9.182;2024-03-23T01:08:25;10.60;1.00
3308;DHT22;1666;48.898;9.182;2024-03-23T01:10:58;10.60;1.00
3308;DHT22;1666;48.898;9.182;2024-03-23T01:13:25;10.70;1.00
3308;DHT22;1666;48.898;9.182;2024-03-23T01:15:53;10.70;1.00
3308;DHT22;1666;48.898;9.182;2024-03-23T01:18:20;10.70;1.00
3308;DHT22;1666;48.898;9.182;2024-03-23T01:20:47;10.60;1.00
3308;DHT22;1666;48.898;9.182;2024-03-23T01:23:14;10.60;1.00
3308;DHT22;1666;48.898;9.182;2024-03-23T01:25:41;10.50;1.00
3308;DHT22;1666;48.898;9.182;2024-03-23T01:28:10;10.60;1.00
3308;DHT22;1666;48.898;9.182;2024-03-23T01:30:36;10.60;1.00
3308;DHT22;1666;48.898;9.182;2024-03-23T01:33:02;10.60;1.00
3308;DHT22;1666;48.898;9.182;2024-03-23T01:35:29;10.60;1.00
3308;DHT22;1666;48.898;9.182;2024-03-23T01:37:55;10.50;1.00
3308;DHT22;1666;48.898;9.182;2024-03-23T01:40:22;10.50;1.00
3308;DHT22;1666;48.898;9.182;2024-03-23T01:42:58;10.50;1.00
3308;DHT22;1666;48.898;9.182;2024-03-23T01:45:27;10.50;1.00
3308;DHT22;1666;48.898;9.182;2024-03-23T01:47:53;10.40;1.00
3308;DHT22;1666;48.898;9.182;2024-03-23T01:50:20;10.40;1.00
3308;DHT22;1666;48.898;9.182;2024-03-23T01:52:47;10.50;1.00
3308;DHT22;1666;48.898;9.182;2024-03-23T01:55:14;10.50;1.00
3308;DHT22;1666;48.898;9.182;2024-03-23T01:57:41;10.70;1.00
3308;DHT22;1666;48.898;9.182;2024-03-23T02:00:08;10.70;1.00
3308;DHT22;1666;48.898;9.182;2024-03-23T02:02:45;10.70;1.00
3308;DHT22;1666;48.898;9.182;2024-03-23T02:05:12;10.70;1.00
3308;DHT22;1666;48.898;9.182;2024-03-23T02:07:39;10.80;1.00
3308;DHT22;1666;48.898;9.182;2024-03-23T02:10:06;10.90;1.00
3308;DHT22;1666;48.898;9.182;2024-03-23T02:12:33;10.90;1.00
3308;DHT22;1666;48.898;9.182;2024-03-23T02:15:00;11.10;1.00
3308;DHT22;1666;48.898;9.182;2024-03-23T02:17:27;11.30;1.00
3308;DHT22;1666;48.898;9.182;2024-03-23T02:19:56;11.50;1.00
3308;DHT22;1666;48.898;9.182;2024-03-23T02:22:23;11.60;1.00
3308;DHT22;1666;48.898;9.182;2024-03-23T02:24:52;11.60;1.00
3308;DHT22;1666;48.898;9.182;2024-03-23T02:27:18;11.70;1.00
3308;DHT22;1666;48.898;9.182;2024-03-23T02:29:44;11.80;1.00
3308;DHT22;1666;48.898;9.182;2024-03-23T02:32:11;11.70;1.00
3308;DHT22;1666;48.898;9.182;2024-03-23T02:34:37;11.70;1.00
3308;DHT22;1666;48.898;9.182;2024-03-23T02:37:10;11.80;1.00
3308;DHT22;1666;48.898;9.182;2024-03-23T02:39:36;11.80;1.00
3308;DHT22;1666;48.898;9.182;2024-03-23T02:42:05;11.90;1.00
3308;DHT22;1666;48.898;9.182;2024-03-23T02:44:32;11.90;1.00
3308;DHT22;1666;48.898;9.182;2024-03-23T02:46:58;11.80;1.00
3308;DHT22;1666;48.898;9.182;2024-03-23T02:49:25;11.70;1.00
3308;DHT22;1666;48.898;9.182;2024-03-23T02:51:52;11.70;1.00
3308;DHT22;1666;48.898;9.182;2024-03-23T02:54:18;11.60;1.00
3308;DHT22;1666;48.898;9.182;2024-03-23T02:56:44;11.70;1.00
3308;DHT22;1666;48.898;9.182;2024-03-23T02:59:13;11.60;1.00
3308;DHT22;1666;48.898;9.182;2024-03-23T03:01:40;11.60;1.00
3308;DHT22;1666;48.898;9.182;2024-03-23T03:04:06;11.60;1.00
3308;DHT22;1666;48.898;9.182;2024-03-23T03:06:32;11.60;1.00
3308;DHT22;1666;48.898;9.182;2024-03-23T03:08:59;11.50;1.00
3308;DHT22;1666;48.898;9.182;2024-03-23T03:11:25;11.40;1.00
3308;DHT22;1666;48.898;9.182;2024-03-23T03:13:52;11.40;1.00
3308;DHT22;1666;48.898;9.182;2024-03-23T03:16:21;11.20;1.00
3308;DHT22;1666;48.898;9.182;2024-03-23T03:18:47;11.20;1.00
3308;DHT22;1666;48.898;9.182;2024-03-23T03:21:13;11.20;1.00
3308;DHT22;1666;48.898;9.182;2024-03-23T03:23:40;11.10;1.00
3308;DHT22;1666;48.898;9.182;2024-03-23T03:26:06;11.00;1.00
3308;DHT22;1666;48.898;9.182;2024-03-23T03:28:33;11.00;1.00
3308;DHT22;1666;48.898;9.182;2024-03-23T03:30:59;10.90;1.00
3308;DHT22;1666;48.898;9.182;2024-03-23T03:33:28;10.80;1.00
3308;DHT22;1666;48.898;9.182;2024-03-23T03:35:55;10.70;1.00
3308;DHT22;1666;48.898;9.182;2024-03-23T03:38:21;10.60;1.00
3308;DHT22;1666;48.898;9.182;2024-03-23T03:40:48;10.50;1.00
3308;DHT22;1666;48.898;9.182;2024-03-23T03:43:14;10.50;1.00
3308;DHT22;1666;48.898;9.182;2024-03-23T03:45:40;10.50;1.00
3308;DHT22;1666;48.898;9.182;2024-03-23T03:48:07;10.50;1.00
3308;DHT22;1666;48.898;9.182;2024-03-23T03:50:37;10.50;1.00
3308;DHT22;1666;48.898;9.182;2024-03-23T03:53:03;10.50;1.00
3308;DHT22;1666;48.898;9.182;2024-03-23T03:55:30;10.60;1.00
3308;DHT22;1666;48.898;9.182;2024-03-23T03:57:56;10.60;1.00
3308;DHT22;1666;48.898;9.182;2024-03-23T04:00:22;10.70;1.00
3308;DHT22;1666;48.898;9.182;2024-03-23T04:02:49;10.70;1.00
3308;DHT22;1666;48.898;9.182;2024-03-23T04:05:15;10.70;1.00
3308;DHT22;1666;48.898;9.182;2024-03-23T04:07:44;10.70;1.00
3308;DHT22;1666;48.898;9.182;2024-03-23T04:10:10;10.70;1.00
3308;DHT22;1666;48.898;9.182;2024-03-23T04:12:37;10.70;1.00
3308;DHT22;1666;48.898;9.182;2024-03-23T04:15:04;10.70;1.00
3308;DHT22;1666;48.898;9.182;2024-03-23T04:17:31;10.80;1.00
3308;DHT22;1666;48.898;9.182;2024-03-23T04:19:57;10.80;1.00
3308;DHT22;1666;48.898;9.182;2024-03-23T04:22:24;10.80;1.00
3308;DHT22;1666;48.898;9.182;2024-03-23T04:24:54;10.90;1.00
3308;DHT22;1666;48.898;9.182;2024-03-23T04:27:20;10.80;1.00
3308;DHT22;1666;48.898;9.182;2024-03-23T04:29:47;10.80;1.00
3308;DHT22;1666;48.898;9.182;2024-03-23T04:32:14;10.70;1.00
3308;DHT22;1666;48.898;9.182;2024-03-23T04:34:41;10.60;1.00
3308;DHT22;1666;48.898;9.182;2024-03-23T04:37:07;10.40;1.00
3308;DHT22;1666;48.898;9.182;2024-03-23T04:39:33;10.20;1.00
3308;DHT22;1666;48.898;9.182;2024-03-23T04:42:03;10.20;1.00
3308;DHT22;1666;48.898;9.182;2024-03-23T04:44:29;10.10;1.00
3308;DHT22;1666;48.898;9.182;2024-03-23T04:46:56;10.00;1.00
3308;DHT22;1666;48.898;9.182;2024-03-23T04:49:24;10.00;12.70
3308;DHT22;1666;48.898;9.182;2024-03-23T04:51:51;10.10;26.60
3308;DHT22;1666;48.898;9.182;2024-03-23T04:54:17;10.10;40.30
3308;DHT22;1666;48.898;9.182;2024-03-23T04:56:44;10.10;44.80
3308;DHT22;1666;48.898;9.182;2024-03-23T04:59:13;10.10;44.70
3308;DHT22;1666;48.898;9.182;2024-03-23T05:01:39;10.10;45.30
3308;DHT22;1666;48.898;9.182;2024-03-23T05:04:08;10.20;24.50
3308;DHT22;1666;48.898;9.182;2024-03-23T05:06:35;10.20;21.50
3308;DHT22;1666;48.898;9.182;2024-03-23T05:09:01;10.20;7.90
3308;DHT22;1666;48.898;9.182;2024-03-23T05:11:29;10.20;4.00
3308;DHT22;1666;48.898;9.182;2024-03-23T05:13:55;10.20;1.00
3308;DHT22;1666;48.898;9.182;2024-03-23T05:16:24;10.10;1.00
3308;DHT22;1666;48.898;9.182;2024-03-23T05:18:50;10.10;1.00
3308;DHT22;1666;48.898;9.182;2024-03-23T05:21:17;10.10;1.00
3308;DHT22;1666;48.898;9.182;2024-03-23T05:23:43;10.10;1.00
3308;DHT22;1666;48.898;9.182;2024-03-23T05:26:10;10.10;1.00
3308;DHT22;1666;48.898;9.182;2024-03-23T05:28:36;10.10;1.00
3308;DHT22;1666;48.898;9.182;2024-03-23T05:31:03;10.10;1.00
3308;DHT22;1666;48.898;9.182;2024-03-23T05:33:32;10.10;1.00
3308;DHT22;1666;48.898;9.182;2024-03-23T05:36:00;10.10;1.00
3308;DHT22;1666;48.898;9.182;2024-03-23T05:38:27;10.00;1.00
3308;DHT22;1666;48.898;9.182;2024-03-23T05:40:54;10.00;1.00
3308;DHT22;1666;48.898;9.182;2024-03-23T05:43:20;10.00;1.00
3308;DHT22;1666;48.898;9.182;2024-03-23T05:45:53;9.80;1.00
3308;DHT22;1666;48.898;9.182;2024-03-23T05:48:20;9.80;1.00
3308;DHT22;1666;48.898;9.182;2024-03-23T05:50:49;9.70;1.00
3308;DHT22;1666;48.898;9.182;2024-03-23T05:53:16;9.70;1.00
3308;DHT22;1666;48.898;9.182;2024-03-23T05:55:42;9.70;1.00
3308;DHT22;1666;48.898;9.182;2024-03-23T05:58:09;9.60;1.00
3308;DHT22;1666;48.898;9.182;2024-03-23T06:00:36;9.60;1.00
3308;DHT22;1666;48.898;9.182;2024-03-23T06:03:03;9.50;1.00
3308;DHT22;1666;48.898;9.182;2024-03-23T06:05:29;9.50;1.00
3308;DHT22;1666;48.898;9.182;2024-03-23T06:07:58;9.50;1.00
3308;DHT22;1666;48.898;9.182;2024-03-23T06:10:24;9.50;1.00
3308;DHT22;1666;48.898;9.182;2024-03-23T06:12:51;9.50;1.00
3308;DHT22;1666;48.898;9.182;2024-03-23T06:15:17;9.50;1.00
3308;DHT22;1666;48.898;9.182;2024-03-23T06:17:44;9.50;1.00
3308;DHT22;1666;48.898;9.182;2024-03-23T06:20:10;9.50;1.00
3308;DHT22;1666;48.898;9.182;2024-03-23T06:22:37;9.50;1.00
3308;DHT22;1666;48.898;9.182;2024-03-23T06:25:07;9.50;1.00
3308;DHT22;1666;48.898;9.182;2024-03-23T06:27:33;9.50;1.00
3308;DHT22;1666;48.898;9.182;2024-03-23T06:30:00;9.50;1.00
3308;DHT22;1666;48.898;9.182;2024-03-23T06:32:27;9.30;1.00
3308;DHT22;1666;48.898;9.182;2024-03-23T06:34:54;9.40;1.00
3308;DHT22;1666;48.898;9.182;2024-03-23T06:37:20;9.30;1.00
3308;DHT22;1666;48.898;9.182;2024-03-23T06:39:47;9.30;1.00
3308;DHT22;1666;48.898;9.182;2024-03-23T06:42:16;9.20;1.00
3308;DHT22;1666;48.898;9.182;2024-03-23T06:44:43;9.20;1.00
3308;DHT22;1666;48.898;9.182;2024-03-23T06:47:10;9.20;1.00
3308;DHT22;1666;48.898;9.182;2024-03-23T06:49:36;9.20;1.00
3308;DHT22;1666;48.898;9.182;2024-03-23T06:52:03;9.10;1.00
3308;DHT22;1666;48.898;9.182;2024-03-23T06:54:29;9.10;1.00
3308;DHT22;1666;48.898;9.182;2024-03-23T06:56:56;9.00;1.00
3308;DHT22;1666;48.898;9.182;2024-03-23T06:59:25;9.20;1.00
3308;DHT22;1666;48.898;9.182;2024-03-23T07:01:52;9.20;1.00
3308;DHT22;1666;48.898;9.182;2024-03-23T07:04:18;9.00;1.00
3308;DHT22;1666;48.898;9.182;2024-03-23T07:06:45;9.00;1.00
3308;DHT22;1666;48.898;9.182;2024-03-23T07:09:12;9.00;1.00
3308;DHT22;1666;48.898;9.182;2024-03-23T07:11:38;9.20;1.00
3308;DHT22;1666;48.898;9.182;2024-03-23T07:14:05;9.20;1.00
3308;DHT22;1666;48.898;9.182;2024-03-23T07:16:34;9.20;1.00
3308;DHT22;1666;48.898;9.182;2024-03-23T07:19:00;9.50;1.00
3308;DHT22;1666;48.898;9.182;2024-03-23T07:21:26;9.40;1.00
3308;DHT22;1666;48.898;9.182;2024-03-23T07:23:53;9.50;1.00
3308;DHT22;1666;48.898;9.182;2024-03-23T07:26:19;9.40;1.00
3308;DHT22;1666;48.898;9.182;2024-03-23T07:28:46;9.40;1.00
3308;DHT22;1666;48.898;9.182;2024-03-23T07:31:13;9.30;1.00
3308;DHT22;1666;48.898;9.182;2024-03-23T07:33:46;9.10;1.00
3308;DHT22;1666;48.898;9.182;2024-03-23T07:36:13;9.10;1.00
3308;DHT22;1666;48.898;9.182;2024-03-23T07:38:40;9.10;1.00
3308;DHT22;1666;48.898;9.182;2024-03-23T07:41:08;8.90;1.00
3308;DHT22;1666;48.898;9.182;2024-03-23T07:43:35;8.80;1.00
3308;DHT22;1666;48.898;9.182;2024-03-23T07:46:02;8.90;1.00
3308;DHT22;1666;48.898;9.182;2024-03-23T07:48:29;8.80;1.00
3308;DHT22;1666;48.898;9.182;2024-03-23T07:51:04;8.80;1.00
3308;DHT22;1666;48.898;9.182;2024-03-23T07:53:31;8.70;1.00
3308;DHT22;1666;48.898;9.182;2024-03-23T07:55:58;8.70;1.00
3308;DHT22;1666;48.898;9.182;2024-03-23T07:58:24;8.70;1.00
3308;DHT22;1666;48.898;9.182;2024-03-23T08:00:51;8.60;1.00
3308;DHT22;1666;48.898;9.182;2024-03-23T08:03:18;8.50;1.00
3308;DHT22;1666;48.898;9.182;2024-03-23T08:05:45;8.40;1.00
3308;DHT22;1666;48.898;9.182;2024-03-23T08:08:14;8.40;1.00
3308;DHT22;1666;48.898;9.182;2024-03-23T08:10:49;8.50;1.00
3308;DHT22;1666;48.898;9.182;2024-03-23T08:13:16;8.60;1.00
3308;DHT22;1666;48.898;9.182;2024-03-23T08:15:43;8.70;1.00
3308;DHT22;1666;48.898;9.182;2024-03-23T08:18:10;8.50;1.00
3308;DHT22;1666;48.898;9.182;2024-03-23T08:20:36;8.20;1.00
3308;DHT22;1666;48.898;9.182;2024-03-23T08:23:03;8.30;1.00
3308;DHT22;1666;48.898;9.182;2024-03-23T08:25:33;8.00;1.00
3308;DHT22;1666;48.898;9.182;2024-03-23T08:28:00;7.80;1.00
3308;DHT22;1666;48.898;9.182;2024-03-23T08:30:29;8.10;1.00
3308;DHT22;1666;48.898;9.182;2024-03-23T08:32:55;8.20;1.00
3308;DHT22;1666;48.898;9.182;2024-03-23T08:35:22;8.30;1.00
3308;DHT22;1666;48.898;9.182;2024-03-23T08:37:48;8.60;1.00
3308;DHT22;1666;48.898;9.182;2024-03-23T08:40:15;8.60;1.00
3308;DHT22;1666;48.898;9.182;2024-03-23T08:42:44;8.80;1.00
3308;DHT22;1666;48.898;9.182;2024-03-23T08:45:11;8.50;1.00
3308;DHT22;1666;48.898;9.182;2024-03-23T08:47:37;8.60;1.00
3308;DHT22;1666;48.898;9.182;2024-03-23T08:50:04;8.60;1.00
3308;DHT22;1666;48.898;9.182;2024-03-23T08:52:31;9.00;1.00
3308;DHT22;1666;48.898;9.182;2024-03-23T08:54:57;8.90;1.00
3308;DHT22;1666;48.898;9.182;2024-03-23T08:57:23;8.90;1.00
3308;DHT22;1666;48.898;9.182;2024-03-23T08:59:52;8.90;1.00
3308;DHT22;1666;48.898;9.182;2024-03-23T09:02:19;8.70;1.00
3308;DHT22;1666;48.898;9.182;2024-03-23T09:04:45;8.90;1.00
3308;DHT22;1666;48.898;9.182;2024-03-23T09:07:11;8.70;1.00
3308;DHT22;1666;48.898;9.182;2024-03-23T09:09:38;8.90;1.00
3308;DHT22;1666;48.898;9.182;2024-03-23T09:12:05;9.40;1.00
3308;DHT22;1666;48.898;9.182;2024-03-23T09:14:32;9.00;1.00
3308;DHT22;1666;48.898;9.182;2024-03-23T09:17:02;8.80;1.00
3308;DHT22;1666;48.898;9.182;2024-03-23T09:19:28;8.50;1.00
3308;DHT22;1666;48.898;9.182;2024-03-23T09:21:55;9.00;1.00
3308;DHT22;1666;48.898;9.182;2024-03-23T09:24:22;9.10;1.00
3308;DHT22;1666;48.898;9.182;2024-03-23T09:26:48;9.10;1.00
3308;DHT22;1666;48.898;9.182;2024-03-23T09:29:15;8.70;1.00
3308;DHT22;1666;48.898;9.182;2024-03-23T09:31:41;8.80;1.00
3308;DHT22;1666;48.898;9.182;2024-03-23T09:34:10;9.00;1.00
3308;DHT22;1666;48.898;9.182;2024-03-23T09:36:36;9.00;1.00
3308;DHT22;1666;48.898;9.182;2024-03-23T09:39:03;9.40;1.00
3308;DHT22;1666;48.898;9.182;2024-03-23T09:41:30;9.10;1.00
3308;DHT22;1666;48.898;9.182;2024-03-23T09:43:57;9.50;1.00
3308;DHT22;1666;48.898;9.182;2024-03-23T09:46:24;9.80;1.00
3308;DHT22;1666;48.898;9.182;2024-03-23T09:48:51;9.40;1.00
3308;DHT22;1666;48.898;9.182;2024-03-23T09:51:20;9.60;1.00
3308;DHT22;1666;48.898;9.182;2024-03-23T09:53:49;9.90;1.00
3308;DHT22;1666;48.898;9.182;2024-03-23T09:56:16;9.80;1.00
3308;DHT22;1666;48.898;9.182;2024-03-23T09:58:43;9.30;1.00
3308;DHT22;1666;48.898;9.182;2024-03-23T10:01:10;10.00;1.00
3308;DHT22;1666;48.898;9.182;2024-03-23T10:03:43;10.60;1.00
3308;DHT22;1666;48.898;9.182;2024-03-23T10:06:09;9.70;1.00
3308;DHT22;1666;48.898;9.182;2024-03-23T10:08:39;9.70;1.00
3308;DHT22;1666;48.898;9.182;2024-03-23T10:11:16;9.20;1.00
3308;DHT22;1666;48.898;9.182;2024-03-23T10:13:44;9.30;1.00
3308;DHT22;1666;48.898;9.182;2024-03-23T10:16:10;9.10;1.00
3308;DHT22;1666;48.898;9.182;2024-03-23T10:18:38;9.20;1.00
3308;DHT22;1666;48.898;9.182;2024-03-23T10:21:08;9.30;1.00
3308;DHT22;1666;48.898;9.182;2024-03-23T10:23:36;9.30;1.00
3308;DHT22;1666;48.898;9.182;2024-03-23T10:26:26;9.00;1.00
3308;DHT22;1666;48.898;9.182;2024-03-23T10:28:54;9.00;1.00
3308;DHT22;1666;48.898;9.182;2024-03-23T10:31:21;9.00;1.00
3308;DHT22;1666;48.898;9.182;2024-03-23T10:33:48;9.10;1.00
3308;DHT22;1666;48.898;9.182;2024-03-23T10:36:16;9.10;1.00
3308;DHT22;1666;48.898;9.182;2024-03-23T10:38:44;9.00;1.00
3308;DHT22;1666;48.898;9.182;2024-03-23T10:41:11;9.10;1.00
3308;DHT22;1666;48.898;9.182;2024-03-23T10:43:40;8.70;1.00
3308;DHT22;1666;48.898;9.182;2024-03-23T10:46:09;8.70;1.00
3308;DHT22;1666;48.898;9.182;2024-03-23T10:48:36;8.70;1.00
3308;DHT22;1666;48.898;9.182;2024-03-23T10:51:05;8.20;1.00
3308;DHT22;1666;48.898;9.182;2024-03-23T10:53:34;7.80;1.00
3308;DHT22;1666;48.898;9.182;2024-03-23T10:56:01;7.40;1.00
3308;DHT22;1666;48.898;9.182;2024-03-23T10:58:31;7.10;1.00
3308;DHT22;1666;48.898;9.182;2024-03-23T11:01:02;6.70;1.00
3308;DHT22;1666;48.898;9.182;2024-03-23T11:03:30;6.50;1.00
3308;DHT22;1666;48.898;9.182;2024-03-23T11:05:57;6.20;1.00
3308;DHT22;1666;48.898;9.182;2024-03-23T11:08:31;6.10;1.00
3308;DHT22;1666;48.898;9.182;2024-03-23T11:11:13;6.20;1.00
3308;DHT22;1666;48.898;9.182;2024-03-23T11:13:41;6.30;1.00
3308;DHT22;1666;48.898;9.182;2024-03-23T11:16:21;6.30;1.00
3308;DHT22;1666;48.898;9.182;2024-03-23T11:18:48;6.80;1.00
3308;DHT22;1666;48.898;9.182;2024-03-23T11:24:13;7.10;1.00
3308;DHT22;1666;48.898;9.182;2024-03-23T11:26:40;7.20;1.00
3308;DHT22;1666;48.898;9.182;2024-03-23T11:29:11;7.30;1.00
3308;DHT22;1666;48.898;9.182;2024-03-23T11:31:45;7.50;1.00
3308;DHT22;1666;48.898;9.182;2024-03-23T11:34:14;8.00;1.00
3308;DHT22;1666;48.898;9.182;2024-03-23T11:36:41;7.90;1.00
3308;DHT22;1666;48.898;9.182;2024-03-23T11:39:15;7.90;1.00
3308;DHT22;1666;48.898;9.182;2024-03-23T11:41:47;7.90;1.00
3308;DHT22;1666;48.898;9.182;2024-03-23T11:44:17;8.00;1.00
3308;DHT22;1666;48.898;9.182;2024-03-23T11:46:48;8.00;1.00
3308;DHT22;1666;48.898;9.182;2024-03-23T11:49:22;7.90;1.00
3308;DHT22;1666;48.898;9.182;2024-03-23T11:51:50;8.10;1.00
3308;DHT22;1666;48.898;9.182;2024-03-23T11:54:20;8.10;1.00
3308;DHT22;1666;48.898;9.182;2024-03-23T11:56:54;8.00;1.00
3308;DHT22;1666;48.898;9.182;2024-03-23T11:59:34;8.10;1.00
3308;DHT22;1666;48.898;9.182;2024-03-23T12:02:10;8.20;1.00
3308;DHT22;1666;48.898;9.182;2024-03-23T12:04:37;8.30;1.00
3308;DHT22;1666;48.898;9.182;2024-03-23T12:07:14;8.50;1.00
3308;DHT22;1666;48.898;9.182;2024-03-23T12:09:41;8.50;1.00
3308;DHT22;1666;48.898;9.182;2024-03-23T12:12:10;8.40;1.00
3308;DHT22;1666;48.898;9.182;2024-03-23T12:14:37;8.40;1.00
3308;DHT22;1666;48.898;9.182;2024-03-23T12:17:12;8.70;1.00
3308;DHT22;1666;48.898;9.182;2024-03-23T12:19:40;8.70;1.00
3308;DHT22;1666;48.898;9.182;2024-03-23T12:22:09;8.80;1.00
3308;DHT22;1666;48.898;9.182;2024-03-23T12:24:35;9.10;1.00
3308;DHT22;1666;48.898;9.182;2024-03-23T12:27:03;9.50;1.00
3308;DHT22;1666;48.898;9.182;2024-03-23T12:29:30;9.90;1.00
3308;DHT22;1666;48.898;9.182;2024-03-23T12:31:59;9.70;1.00
3308;DHT22;1666;48.898;9.182;2024-03-23T12:34:29;9.70;1.00
3308;DHT22;1666;48.898;9.182;2024-03-23T12:36:57;9.50;1.00
3308;DHT22;1666;48.898;9.182;2024-03-23T12:39:24;9.40;1.00
3308;DHT22;1666;48.898;9.182;2024-03-23T12:41:51;9.30;1.00
3308;DHT22;1666;48.898;9.182;2024-03-23T12:44:19;9.60;1.00
3308;DHT22;1666;48.898;9.182;2024-03-23T12:46:46;9.80;1.00
3308;DHT22;1666;48.898;9.182;2024-03-23T12:49:13;9.80;1.00
3308;DHT22;1666;48.898;9.182;2024-03-23T12:51:48;9.90;1.00
3308;DHT22;1666;48.898;9.182;2024-03-23T12:54:23;9.90;1.00
3308;DHT22;1666;48.898;9.182;2024-03-23T12:56:50;10.50;1.00
3308;DHT22;1666;48.898;9.182;2024-03-23T12:59:17;11.30;1.00
3308;DHT22;1666;48.898;9.182;2024-03-23T13:01:44;11.20;1.00
3308;DHT22;1666;48.898;9.182;2024-03-23T13:04:11;11.10;1.00
3308;DHT22;1666;48.898;9.182;2024-03-23T13:06:39;11.10;1.00
3308;DHT22;1666;48.898;9.182;2024-03-23T13:09:08;11.10;1.00
3308;DHT22;1666;48.898;9.182;2024-03-23T13:11:36;11.10;1.00
3308;DHT22;1666;48.898;9.182;2024-03-23T13:14:03;11.00;1.00
3308;DHT22;1666;48.898;9.182;2024-03-23T13:16:30;11.00;1.00
3308;DHT22;1666;48.898;9.182;2024-03-23T13:18:57;10.90;1.00
3308;DHT22;1666;48.898;9.182;2024-03-23T13:21:24;10.60;1.00
3308;DHT22;1666;48.898;9.182;2024-03-23T13:23:51;10.60;1.00
3308;DHT22;1666;48.898;9.182;2024-03-23T13:26:20;10.60;1.00
3308;DHT22;1666;48.898;9.182;2024-03-23T13:28:47;10.50;1.00
3308;DHT22;1666;48.898;9.182;2024-03-23T13:31:14;10.90;1.00
3308;DHT22;1666;48.898;9.182;2024-03-23T13:33:40;10.90;1.00
3308;DHT22;1666;48.898;9.182;2024-03-23T13:36:08;11.30;1.00
3308;DHT22;1666;48.898;9.182;2024-03-23T13:38:35;11.10;1.00
3308;DHT22;1666;48.898;9.182;2024-03-23T13:41:01;10.70;1.00
3308;DHT22;1666;48.898;9.182;2024-03-23T13:43:30;10.80;1.00
3308;DHT22;1666;48.898;9.182;2024-03-23T13:45:57;10.60;1.00
3308;DHT22;1666;48.898;9.182;2024-03-23T13:48:25;10.80;1.00
3308;DHT22;1666;48.898;9.182;2024-03-23T13:50:58;10.70;1.00
3308;DHT22;1666;48.898;9.182;2024-03-23T13:53:24;10.50;1.00
3308;DHT22;1666;48.898;9.182;2024-03-23T13:55:51;9.10;1.00
3308;DHT22;1666;48.898;9.182;2024-03-23T13:58:17;7.30;1.00
3308;DHT22;1666;48.898;9.182;2024-03-23T14:00:46;6.60;1.00
3308;DHT22;1666;48.898;9.182;2024-03-23T14:03:13;6.40;1.00
3308;DHT22;1666;48.898;9.182;2024-03-23T14:05:40;6.60;1.00
3308;DHT22;1666;48.898;9.182;2024-03-23T14:08:07;6.40;1.00
3308;DHT22;1666;48.898;9.182;2024-03-23T14:10:34;6.40;1.00
3308;DHT22;1666;48.898;9.182;2024-03-23T14:13:01;6.20;1.00
3308;DHT22;1666;48.898;9.182;2024-03-23T14:15:28;5.90;1.00
3308;DHT22;1666;48.898;9.182;2024-03-23T14:17:57;6.20;1.00
3308;DHT22;1666;48.898;9.182;2024-03-23T14:20:23;6.40;1.00
3308;DHT22;1666;48.898;9.182;2024-03-23T14:22:50;6.60;1.00
3308;DHT22;1666;48.898;9.182;2024-03-23T14:25:17;6.60;1.00
3308;DHT22;1666;48.898;9.182;2024-03-23T14:27:44;6.70;1.00
3308;DHT22;1666;48.898;9.182;2024-03-23T14:30:12;6.80;1.00
3308;DHT22;1666;48.898;9.182;2024-03-23T14:32:38;6.70;1.00
3308;DHT22;1666;48.898;9.182;2024-03-23T14:35:08;6.80;1.00
3308;DHT22;1666;48.898;9.182;2024-03-23T14:37:34;7.20;1.00
3308;DHT22;1666;48.898;9.182;2024-03-23T14:40:03;7.60;1.00
3308;DHT22;1666;48.898;9.182;2024-03-23T14:42:29;7.70;1.00
3308;DHT22;1666;48.898;9.182;2024-03-23T14:44:56;7.80;1.00
3308;DHT22;1666;48.898;9.182;2024-03-23T14:47:22;8.00;1.00
3308;DHT22;1666;48.898;9.182;2024-03-23T14:49:49;8.10;1.00
3308;DHT22;1666;48.898;9.182;2024-03-23T14:52:18;8.20;1.00
3308;DHT22;1666;48.898;9.182;2024-03-23T14:54:45;8.40;1.00
3308;DHT22;1666;48.898;9.182;2024-03-23T14:57:11;8.40;1.00
3308;DHT22;1666;48.898;9.182;2024-03-23T14:59:38;8.10;1.00
3308;DHT22;1666;48.898;9.182;2024-03-23T15:02:04;8.10;1.00
3308;DHT22;1666;48.898;9.182;2024-03-23T15:04:31;8.10;1.00
3308;DHT22;1666;48.898;9.182;2024-03-23T15:06:57;8.10;1.00
3308;DHT22;1666;48.898;9.182;2024-03-23T15:09:26;8.00;1.00
3308;DHT22;1666;48.898;9.182;2024-03-23T15:11:52;8.20;1.00
3308;DHT22;1666;48.898;9.182;2024-03-23T15:14:19;8.30;1.00
3308;DHT22;1666;48.898;9.182;2024-03-23T15:16:45;8.70;1.00
3308;DHT22;1666;48.898;9.182;2024-03-23T15:19:11;8.70;1.00
3308;DHT22;1666;48.898;9.182;2024-03-23T15:21:38;8.90;1.00
3308;DHT22;1666;48.898;9.182;2024-03-23T15:24:05;8.90;1.00
3308;DHT22;1666;48.898;9.182;2024-03-23T15:26:34;8.70;1.00
3308;DHT22;1666;48.898;9.182;2024-03-23T15:29:01;8.70;1.00
3308;DHT22;1666;48.898;9.182;2024-03-23T15:31:34;8.70;1.00
3308;DHT22;1666;48.898;9.182;2024-03-23T15:34:01;8.60;1.00
3308;DHT22;1666;48.898;9.182;2024-03-23T15:36:27;8.40;1.00
3308;DHT22;1666;48.898;9.182;2024-03-23T15:38:53;8.40;1.00
3308;DHT22;1666;48.898;9.182;2024-03-23T15:41:20;8.20;1.00
3308;DHT22;1666;48.898;9.182;2024-03-23T15:43:49;8.30;1.00
3308;DHT22;1666;48.898;9.182;2024-03-23T15:46:15;8.00;1.00
3308;DHT22;1666;48.898;9.182;2024-03-23T15:48:42;8.30;1.00
3308;DHT22;1666;48.898;9.182;2024-03-23T15:51:08;8.20;1.00
3308;DHT22;1666;48.898;9.182;2024-03-23T15:53:34;8.30;1.00
3308;DHT22;1666;48.898;9.182;2024-03-23T15:56:02;7.90;1.00
3308;DHT22;1666;48.898;9.182;2024-03-23T15:58:30;8.00;1.00
3308;DHT22;1666;48.898;9.182;2024-03-23T16:01:00;8.00;1.00
3308;DHT22;1666;48.898;9.182;2024-03-23T16:03:27;8.20;1.00
3308;DHT22;1666;48.898;9.182;2024-03-23T16:05:56;8.20;1.00
3308;DHT22;1666;48.898;9.182;2024-03-23T16:08:23;8.10;1.00
3308;DHT22;1666;48.898;9.182;2024-03-23T16:10:50;8.20;1.00
3308;DHT22;1666;48.898;9.182;2024-03-23T16:13:17;8.20;1.00
3308;DHT22;1666;48.898;9.182;2024-03-23T16:15:44;8.20;1.00
3308;DHT22;1666;48.898;9.182;2024-03-23T16:18:13;8.20;1.00
3308;DHT22;1666;48.898;9.182;2024-03-23T16:20:39;8.20;1.00
3308;DHT22;1666;48.898;9.182;2024-03-23T16:23:06;8.10;1.00
3308;DHT22;1666;48.898;9.182;2024-03-23T16:25:32;8.10;1.00
3308;DHT22;1666;48.898;9.182;2024-03-23T16:27:58;7.90;1.00
3308;DHT22;1666;48.898;9.182;2024-03-23T16:30:25;7.90;1.00
3308;DHT22;1666;48.898;9.182;2024-03-23T16:32:51;7.80;1.00
3308;DHT22;1666;48.898;9.182;2024-03-23T16:35:20;7.80;1.00
3308;DHT22;1666;48.898;9.182;2024-03-23T16:37:46;7.90;1.00
3308;DHT22;1666;48.898;9.182;2024-03-23T16:40:14;7.90;1.00
3308;DHT22;1666;48.898;9.182;2024-03-23T16:42:40;7.90;1.00
3308;DHT22;1666;48.898;9.182;2024-03-23T16:45:08;7.90;1.00
3308;DHT22;1666;48.898;9.182;2024-03-23T16:47:34;7.70;1.00
3308;DHT22;1666;48.898;9.182;2024-03-23T16:50:00;7.50;1.00
3308;DHT22;1666;48.898;9.182;2024-03-23T16:52:29;7.50;1.00
3308;DHT22;1666;48.898;9.182;2024-03-23T16:54:56;7.40;1.00
3308;DHT22;1666;48.898;9.182;2024-03-23T16:57:22;7.20;1.00
3308;DHT22;1666;48.898;9.182;2024-03-23T16:59:49;7.00;1.00
3308;DHT22;1666;48.898;9.182;2024-03-23T17:02:15;7.10;1.00
3308;DHT22;1666;48.898;9.182;2024-03-23T17:04:42;7.10;1.00
3308;DHT22;1666;48.898;9.182;2024-03-23T17:07:08;7.10;1.00
3308;DHT22;1666;48.898;9.182;2024-03-23T17:09:46;7.00;1.00
3308;DHT22;1666;48.898;9.182;2024-03-23T17:12:13;7.10;1.00
3308;DHT22;1666;48.898;9.182;2024-03-23T17:14:39;6.90;1.00
3308;DHT22;1666;48.898;9.182;2024-03-23T17:17:06;6.90;1.00
3308;DHT22;1666;48.898;9.182;2024-03-23T17:19:32;6.90;1.00
3308;DHT22;1666;48.898;9.182;2024-03-23T17:21:58;6.70;1.00
3308;DHT22;1666;48.898;9.182;2024-03-23T17:24:25;6.70;1.00
3308;DHT22;1666;48.898;9.182;2024-03-23T17:26:54;6.60;1.00